King of Scandinavia — OVOL2 — position and weather

sailwx.info

Track history (hours):
 
Tides and Currents Weather Stations Pressure Air Temp Water Temp Dewpoint Dewpoint Depression Visibility Wind Speed Wind Dir Waves Ship Positions

King of Scandinavia

Ship's website: http://www.dfds.co.uk/DSW/EN/OnBoard/na/KING.htm

Last reported at 2016-May-26 17:33 UTC. Time now 2016-May-26 18:27 UTC.
Position N 54°50' W 000°53'.

Length 166 m; beam 27.6 m; draft 6.2 m.

Type: Passenger vessel. MMSI: 220449000.

Date/timePositionNaut miles runAvg speedWind from/ knotsBaromVisibWave heightAir tempDewpointWater temp
2016-May-26 17:33N 54°50' W 000°53'1818.4
2016-May-26 16:34N 54°59' W 001°20'4 4.2
2016-May-26 15:33N 54°59' W 001°27'0 0.0
2016-May-26 14:33N 54°59' W 001°27'0 0.0
2016-May-26 13:33N 54°59' W 001°27'0 0.0
2016-May-26 12:33N 54°59' W 001°27'0 0.0
2016-May-26 11:33N 54°59' W 001°27'0 0.0
2016-May-26 10:33N 54°59' W 001°27'0 0.0
2016-May-26 09:33N 54°59' W 001°27'0 0.0
2016-May-26 08:33N 54°59' W 001°27'3 3.3
2016-May-26 07:33N 55°01' W 001°22'1312.5
2016-May-26 06:33N 54°52' W 001°06'1111.3
2016-May-26 05:33N 54°46' W 000°50'1211.6
2016-May-26 04:33N 54°41' W 000°31'1717.4
2016-May-26 03:33N 54°32' W 000°06'2219.5
2016-May-26 02:26N 54°21' E 000°27'17517.7
2016-May-25 16:33N 52°34' E 004°20'1111.3
2016-May-25 15:33N 52°28' E 004°35'0 0.0
2016-May-25 14:30N 52°28' E 004°35'0 0.0
2016-May-25 13:33N 52°28' E 004°35'0 0.0
2016-May-25 12:30N 52°28' E 004°35'0 0.0
2016-May-25 11:33N 52°28' E 004°35'0 0.0
2016-May-25 10:33N 52°28' E 004°35'0 0.0
2016-May-25 09:33N 52°28' E 004°35'0 0.0
2016-May-25 08:30N 52°28' E 004°35'0 0.1
2016-May-25 07:34N 52°28' E 004°35'1010.5
2016-May-25 06:33N 52°34' E 004°21'1514.6
2016-May-25 05:33N 52°44' E 004°03'15418.2
2016-May-24 21:05N 54°16' E 000°37'917.8
2016-May-24 20:33N 54°22' E 000°24'1817.9
2016-May-24 19:33N 54°32' W 000°02'1818.3
2016-May-24 18:33N 54°42' W 000°29'1818.3
2016-May-24 17:33N 54°51' W 000°56'1817.9
2016-May-24 16:33N 55°00' W 001°22'3 2.9
2016-May-24 15:33N 54°59' W 001°27'0 0.0
2016-May-24 14:33N 54°59' W 001°27'0 0.0
2016-May-24 13:33N 54°59' W 001°27'0 0.0
2016-May-24 12:33N 54°59' W 001°27'0 0.0
2016-May-24 11:33N 54°59' W 001°27'0 0.0
2016-May-24 10:33N 54°59' W 001°27'0 0.0
2016-May-24 09:33N 54°59' W 001°27'0 0.0
2016-May-24 08:13N 54°59' W 001°27'4 5.6
2016-May-24 07:34N 55°01' W 001°21'1615.6
2016-May-24 06:33N 54°53' W 000°58'1717.2
2016-May-24 05:33N 54°43' W 000°33'1716.7
2016-May-24 04:33N 54°34' W 000°09'1716.9
2016-May-24 03:33N 54°25' E 000°16'18416.8
2016-May-23 16:33N 52°34' E 004°23'10 9.5
2016-May-23 15:33N 52°28' E 004°35'0 0.0
2016-May-23 14:29N 52°28' E 004°35'0 0.0
2016-May-23 13:32N 52°28' E 004°35'0 0.0
2016-May-23 12:32N 52°28' E 004°35'0 0.0
2016-May-23 11:32N 52°28' E 004°35'0 0.0
2016-May-23 10:32N 52°28' E 004°35'0 0.0
2016-May-23 09:32N 52°28' E 004°35'0 0.0
2016-May-23 08:32N 52°28' E 004°35'0 0.0
2016-May-23 07:34N 52°28' E 004°35'1110.8
2016-May-23 06:33N 52°34' E 004°21'17117.1
2016-May-22 20:33N 54°18' E 000°33'1818.3
2016-May-22 19:33N 54°28' E 000°07'1918.7
2016-May-22 18:33N 54°38' W 000°20'1919.0
2016-May-22 17:33N 54°49' W 000°47'1918.7
2016-May-22 16:33N 54°58' W 001°15'7 6.8
2016-May-22 15:33N 54°59' W 001°27'0 0.0
2016-May-22 14:30N 54°59' W 001°27'0 0.0
2016-May-22 13:33N 54°59' W 001°27'0 0.0
2016-May-22 12:33N 54°59' W 001°27'0 0.0
2016-May-22 11:33N 54°59' W 001°27'0 0.0
2016-May-22 10:33N 54°59' W 001°27'0 0.0
2016-May-22 09:33N 54°59' W 001°27'0 0.0
2016-May-22 08:33N 54°59' W 001°27'6 6.3
2016-May-22 07:33N 54°59' W 001°16'2019.6
2016-May-22 06:33N 54°48' W 000°48'1918.7
2016-May-22 05:33N 54°38' W 000°21'1716.9
2016-May-22 04:33N 54°29' E 000°04'1615.8
2016-May-22 03:33N 54°20' E 000°26'17315.7
2016-May-21 16:31N 52°36' E 004°18'1313.7
2016-May-21 15:33N 52°28' E 004°35'0 0.0
2016-May-21 14:32N 52°28' E 004°35'0 0.0
2016-May-21 13:32N 52°28' E 004°35'0 0.0
2016-May-21 12:32N 52°28' E 004°35'0 0.0
2016-May-21 11:32N 52°28' E 004°35'0 0.0
2016-May-21 10:32N 52°28' E 004°35'0 0.0
2016-May-21 09:32N 52°28' E 004°35'0 0.0
2016-May-21 08:32N 52°28' E 004°35'0 0.0
2016-May-21 07:33N 52°28' E 004°35'1110.7
2016-May-21 06:33N 52°34' E 004°21'17217.3
2016-May-20 20:34N 54°19' E 000°31'1717.3
2016-May-20 19:34N 54°28' E 000°05'1817.7
2016-May-20 18:34N 54°37' W 000°20'1818.4
2016-May-20 17:33N 54°48' W 000°47'1918.7
2016-May-20 16:33N 54°58' W 001°14'8 7.9
2016-May-20 15:33N 54°59' W 001°27'0 0.0
2016-May-20 14:34N 54°59' W 001°27'0 0.0
2016-May-20 13:24N 54°59' W 001°27'0 0.0
2016-May-20 12:33N 54°59' W 001°27'0 0.0
2016-May-20 11:33N 54°59' W 001°27'0 0.0
2016-May-20 10:34N 54°59' W 001°27'0 0.0
2016-May-20 09:10N 54°59' W 001°27'0 0.0
2016-May-20 08:27N 54°59' W 001°27'5 5.2
2016-May-20 07:33N 55°00' W 001°19'1818.1
2016-May-20 06:33N 54°51' W 000°52'1817.8
2016-May-20 05:33N 54°41' W 000°26'1717.1
2016-May-20 04:33N 54°32' W 000°02'1716.8
2016-May-20 03:33N 54°22' E 000°22'15116.0
2016-May-19 18:09N 52°53' E 003°46'1115.0
2016-May-19 17:26N 52°46' E 004°00'1315.3
2016-May-19 16:33N 52°37' E 004°17'1414.2
2016-May-19 15:34N 52°28' E 004°34'1 0.5
2016-May-19 14:33N 52°28' E 004°35'0 0.0
2016-May-19 13:33N 52°28' E 004°35'0 0.0
2016-May-19 12:33N 52°28' E 004°35'0 0.0
2016-May-19 11:33N 52°28' E 004°35'0 0.0
2016-May-19 10:33N 52°28' E 004°35'0 0.0
2016-May-19 09:33N 52°28' E 004°35'0 0.0
2016-May-19 08:33N 52°28' E 004°35'0 0.0
2016-May-19 07:34N 52°28' E 004°35'1110.6
2016-May-19 06:33N 52°33' E 004°20'16617.9
2016-May-18 21:17N 54°16' E 000°40'1318.0
2016-May-18 20:34N 54°23' E 000°21'1717.0
2016-May-18 19:33N 54°32' W 000°03'1717.1
2016-May-18 18:34N 54°41' W 000°28'1717.3
2016-May-18 17:33N 54°51' W 000°53'1817.6
2016-May-18 16:34N 54°60' W 001°19'5 4.6
2016-May-18 15:34N 54°59' W 001°27'0 0.0
2016-May-18 14:32N 54°59' W 001°27'0 0.0
2016-May-18 13:32N 54°59' W 001°27'0 0.0
2016-May-18 12:32N 54°59' W 001°27'0 0.0
2016-May-18 11:08N 54°59' W 001°27'0 0.0
2016-May-18 10:26N 54°59' W 001°27'0 0.0
2016-May-18 09:26N 54°59' W 001°27'0 0.0
2016-May-18 08:33N 54°59' W 001°27'4 4.0
2016-May-18 07:34N 55°01' W 001°20'1414.2
2016-May-18 06:33N 54°54' W 000°59'1515.0
2016-May-18 05:33N 54°46' W 000°37'1615.7
2016-May-18 04:34N 54°37' W 000°14'1515.1
2016-May-18 03:34N 54°29' E 000°08'1716.8
2016-May-18 02:33N 54°21' E 000°33'17117.1
2016-May-17 16:33N 52°35' E 004°19'1211.8
2016-May-17 15:31N 52°28' E 004°35'0 0.0
2016-May-17 14:31N 52°28' E 004°35'0 0.0
2016-May-17 13:31N 52°28' E 004°35'0 0.0
2016-May-17 12:31N 52°28' E 004°35'0 0.0
2016-May-17 11:31N 52°28' E 004°35'0 0.0
2016-May-17 10:31N 52°28' E 004°35'0 0.0
2016-May-17 09:31N 52°28' E 004°35'0 0.0
2016-May-17 08:31N 52°28' E 004°35'0 0.1
2016-May-17 07:33N 52°28' E 004°35'1212.3
2016-May-17 06:33N 52°35' E 004°18'14217.6
2016-May-16 22:29N 54°03' E 001°12'1817.2
2016-May-16 21:28N 54°13' E 000°47'1617.3
2016-May-16 20:34N 54°21' E 000°25'1717.3
2016-May-16 19:33N 54°31' W 000°00'1717.1
2016-May-16 18:34N 54°40' W 000°25'  
Track history (hours):
 
Tides and Currents Weather Stations Pressure Air Temp Water Temp Dewpoint Dewpoint Depression Visibility Wind Speed Wind Dir Waves Ship Positions

King of Scandinavia

Ship's website: http://www.dfds.co.uk/DSW/EN/OnBoard/na/KING.htm

Last reported at 2016-May-26 17:33 UTC. Time now 2016-May-26 18:27 UTC.
Position N 54°50' W 000°53'.

Length 166 m; beam 27.6 m; draft 6.2 m.

Type: Passenger vessel. MMSI: 220449000.

Date/timePositionNaut miles runAvg speedWind from/ knotsBaromVisibWave heightAir tempDewpointWater temp
2016-May-26 17:33N 54°50' W 000°53'1818.4
2016-May-26 16:34N 54°59' W 001°20'4 4.2
2016-May-26 15:33N 54°59' W 001°27'0 0.0
2016-May-26 14:33N 54°59' W 001°27'0 0.0
2016-May-26 13:33N 54°59' W 001°27'0 0.0
2016-May-26 12:33N 54°59' W 001°27'0 0.0
2016-May-26 11:33N 54°59' W 001°27'0 0.0
2016-May-26 10:33N 54°59' W 001°27'0 0.0
2016-May-26 09:33N 54°59' W 001°27'0 0.0
2016-May-26 08:33N 54°59' W 001°27'3 3.3
2016-May-26 07:33N 55°01' W 001°22'1312.5
2016-May-26 06:33N 54°52' W 001°06'1111.3
2016-May-26 05:33N 54°46' W 000°50'1211.6
2016-May-26 04:33N 54°41' W 000°31'1717.4
2016-May-26 03:33N 54°32' W 000°06'2219.5
2016-May-26 02:26N 54°21' E 000°27'17517.7
2016-May-25 16:33N 52°34' E 004°20'1111.3
2016-May-25 15:33N 52°28' E 004°35'0 0.0
2016-May-25 14:30N 52°28' E 004°35'0 0.0
2016-May-25 13:33N 52°28' E 004°35'0 0.0
2016-May-25 12:30N 52°28' E 004°35'0 0.0
2016-May-25 11:33N 52°28' E 004°35'0 0.0
2016-May-25 10:33N 52°28' E 004°35'0 0.0
2016-May-25 09:33N 52°28' E 004°35'0 0.0
2016-May-25 08:30N 52°28' E 004°35'0 0.1
2016-May-25 07:34N 52°28' E 004°35'1010.5
2016-May-25 06:33N 52°34' E 004°21'1514.6
2016-May-25 05:33N 52°44' E 004°03'15418.2
2016-May-24 21:05N 54°16' E 000°37'917.8
2016-May-24 20:33N 54°22' E 000°24'1817.9
2016-May-24 19:33N 54°32' W 000°02'1818.3
2016-May-24 18:33N 54°42' W 000°29'1818.3
2016-May-24 17:33N 54°51' W 000°56'1817.9
2016-May-24 16:33N 55°00' W 001°22'3 2.9
2016-May-24 15:33N 54°59' W 001°27'0 0.0
2016-May-24 14:33N 54°59' W 001°27'0 0.0
2016-May-24 13:33N 54°59' W 001°27'0 0.0
2016-May-24 12:33N 54°59' W 001°27'0 0.0
2016-May-24 11:33N 54°59' W 001°27'0 0.0
2016-May-24 10:33N 54°59' W 001°27'0 0.0
2016-May-24 09:33N 54°59' W 001°27'0 0.0
2016-May-24 08:13N 54°59' W 001°27'4 5.6
2016-May-24 07:34N 55°01' W 001°21'1615.6
2016-May-24 06:33N 54°53' W 000°58'1717.2
2016-May-24 05:33N 54°43' W 000°33'1716.7
2016-May-24 04:33N 54°34' W 000°09'1716.9
2016-May-24 03:33N 54°25' E 000°16'18416.8
2016-May-23 16:33N 52°34' E 004°23'10 9.5
2016-May-23 15:33N 52°28' E 004°35'0 0.0
2016-May-23 14:29N 52°28' E 004°35'0 0.0
2016-May-23 13:32N 52°28' E 004°35'0 0.0
2016-May-23 12:32N 52°28' E 004°35'0 0.0
2016-May-23 11:32N 52°28' E 004°35'0 0.0
2016-May-23 10:32N 52°28' E 004°35'0 0.0
2016-May-23 09:32N 52°28' E 004°35'0 0.0
2016-May-23 08:32N 52°28' E 004°35'0 0.0
2016-May-23 07:34N 52°28' E 004°35'1110.8
2016-May-23 06:33N 52°34' E 004°21'17117.1
2016-May-22 20:33N 54°18' E 000°33'1818.3
2016-May-22 19:33N 54°28' E 000°07'1918.7
2016-May-22 18:33N 54°38' W 000°20'1919.0
2016-May-22 17:33N 54°49' W 000°47'1918.7
2016-May-22 16:33N 54°58' W 001°15'7 6.8
2016-May-22 15:33N 54°59' W 001°27'0 0.0
2016-May-22 14:30N 54°59' W 001°27'0 0.0
2016-May-22 13:33N 54°59' W 001°27'0 0.0
2016-May-22 12:33N 54°59' W 001°27'0 0.0
2016-May-22 11:33N 54°59' W 001°27'0 0.0
2016-May-22 10:33N 54°59' W 001°27'0 0.0
2016-May-22 09:33N 54°59' W 001°27'0 0.0
2016-May-22 08:33N 54°59' W 001°27'6 6.3
2016-May-22 07:33N 54°59' W 001°16'2019.6
2016-May-22 06:33N 54°48' W 000°48'1918.7
2016-May-22 05:33N 54°38' W 000°21'1716.9
2016-May-22 04:33N 54°29' E 000°04'1615.8
2016-May-22 03:33N 54°20' E 000°26'17315.7
2016-May-21 16:31N 52°36' E 004°18'1313.7
2016-May-21 15:33N 52°28' E 004°35'0 0.0
2016-May-21 14:32N 52°28' E 004°35'0 0.0
2016-May-21 13:32N 52°28' E 004°35'0 0.0
2016-May-21 12:32N 52°28' E 004°35'0 0.0
2016-May-21 11:32N 52°28' E 004°35'0 0.0
2016-May-21 10:32N 52°28' E 004°35'0 0.0
2016-May-21 09:32N 52°28' E 004°35'0 0.0
2016-May-21 08:32N 52°28' E 004°35'0 0.0
2016-May-21 07:33N 52°28' E 004°35'1110.7
2016-May-21 06:33N 52°34' E 004°21'17217.3
2016-May-20 20:34N 54°19' E 000°31'1717.3
2016-May-20 19:34N 54°28' E 000°05'1817.7
2016-May-20 18:34N 54°37' W 000°20'1818.4
2016-May-20 17:33N 54°48' W 000°47'1918.7
2016-May-20 16:33N 54°58' W 001°14'8 7.9
2016-May-20 15:33N 54°59' W 001°27'0 0.0
2016-May-20 14:34N 54°59' W 001°27'0 0.0
2016-May-20 13:24N 54°59' W 001°27'0 0.0
2016-May-20 12:33N 54°59' W 001°27'0 0.0
2016-May-20 11:33N 54°59' W 001°27'0 0.0
2016-May-20 10:34N 54°59' W 001°27'0 0.0
2016-May-20 09:10N 54°59' W 001°27'0 0.0
2016-May-20 08:27N 54°59' W 001°27'5 5.2
2016-May-20 07:33N 55°00' W 001°19'1818.1
2016-May-20 06:33N 54°51' W 000°52'1817.8
2016-May-20 05:33N 54°41' W 000°26'1717.1
2016-May-20 04:33N 54°32' W 000°02'1716.8
2016-May-20 03:33N 54°22' E 000°22'15116.0
2016-May-19 18:09N 52°53' E 003°46'1115.0
2016-May-19 17:26N 52°46' E 004°00'1315.3
2016-May-19 16:33N 52°37' E 004°17'1414.2
2016-May-19 15:34N 52°28' E 004°34'1 0.5
2016-May-19 14:33N 52°28' E 004°35'0 0.0
2016-May-19 13:33N 52°28' E 004°35'0 0.0
2016-May-19 12:33N 52°28' E 004°35'0 0.0
2016-May-19 11:33N 52°28' E 004°35'0 0.0
2016-May-19 10:33N 52°28' E 004°35'0 0.0
2016-May-19 09:33N 52°28' E 004°35'0 0.0
2016-May-19 08:33N 52°28' E 004°35'0 0.0
2016-May-19 07:34N 52°28' E 004°35'1110.6
2016-May-19 06:33N 52°33' E 004°20'16617.9
2016-May-18 21:17N 54°16' E 000°40'1318.0
2016-May-18 20:34N 54°23' E 000°21'1717.0
2016-May-18 19:33N 54°32' W 000°03'1717.1
2016-May-18 18:34N 54°41' W 000°28'1717.3
2016-May-18 17:33N 54°51' W 000°53'1817.6
2016-May-18 16:34N 54°60' W 001°19'5 4.6
2016-May-18 15:34N 54°59' W 001°27'0 0.0
2016-May-18 14:32N 54°59' W 001°27'0 0.0
2016-May-18 13:32N 54°59' W 001°27'0 0.0
2016-May-18 12:32N 54°59' W 001°27'0 0.0
2016-May-18 11:08N 54°59' W 001°27'0 0.0
2016-May-18 10:26N 54°59' W 001°27'0 0.0
2016-May-18 09:26N 54°59' W 001°27'0 0.0
2016-May-18 08:33N 54°59' W 001°27'4 4.0
2016-May-18 07:34N 55°01' W 001°20'1414.2
2016-May-18 06:33N 54°54' W 000°59'1515.0
2016-May-18 05:33N 54°46' W 000°37'1615.7
2016-May-18 04:34N 54°37' W 000°14'1515.1
2016-May-18 03:34N 54°29' E 000°08'1716.8
2016-May-18 02:33N 54°21' E 000°33'17117.1
2016-May-17 16:33N 52°35' E 004°19'1211.8
2016-May-17 15:31N 52°28' E 004°35'0 0.0
2016-May-17 14:31N 52°28' E 004°35'0 0.0
2016-May-17 13:31N 52°28' E 004°35'0 0.0
2016-May-17 12:31N 52°28' E 004°35'0 0.0
2016-May-17 11:31N 52°28' E 004°35'0 0.0
2016-May-17 10:31N 52°28' E 004°35'0 0.0
2016-May-17 09:31N 52°28' E 004°35'0 0.0
2016-May-17 08:31N 52°28' E 004°35'0 0.1
2016-May-17 07:33N 52°28' E 004°35'1212.3
2016-May-17 06:33N 52°35' E 004°18'14217.6
2016-May-16 22:29N 54°03' E 001°12'1817.2
2016-May-16 21:28N 54°13' E 000°47'1617.3
2016-May-16 20:34N 54°21' E 000°25'1717.3
2016-May-16 19:33N 54°31' W 000°00'1717.1
2016-May-16 18:34N 54°40' W 000°25'  

Dump ship's entire track history